»·PEaware :: BOE561 KPDX-KRNO

BOE561 :: KPDX-KRNO

FLIGHT INFORMATION

Flight Status: Arrived
Operator:
Boeing Commercial Airplane Group
More flights by this operator :: More flights under this callsign
Pilot: Ben F. (2808)
Aircraft: BOEING 737-200
(B732)
More flights by this aircraft type
Origin: KPDX Portland Intl
United States
Destination: KRNO Reno/Tahoe Intl
United States
More flights between these airports :: More routes between these airports
Route: PTLD1 DSD LKV J5 FMG
File this flight plan on PilotEdge
Remarks:
Altitude:
(Current/Filed)
31,000ft
Speed:
(Current/Filed)
426kts
Departed: 05-Mar-18 11:26 AM
Arrived: 05-Mar-18 12:28 PM
Distance/Time
Traveled:
386nm/1:02
Distance/Time
To Go:
Arrived

Flight Plot

Page will automatically refresh every two minutes.

Flight plan parsing failed; only flown route is shown


Map Options




Map Legend


Flown Route
Filed Route
Departure Airport
Arrival Airport
Navaid (VOR, NDB)
Fix

Horizontal Profiles

Position Reports

Time Latitude Longitude Heading Altitude Ground
Speed
05-Mar-18 11:15 45.587872 -122.584503 209 38ft 0kts
05-Mar-18 11:16 45.587872 -122.584503 209 38ft 0kts
05-Mar-18 11:17 45.587872 -122.584503 209 38ft 0kts
05-Mar-18 11:18 45.587872 -122.584503 209 38ft 0kts
05-Mar-18 11:19 45.587872 -122.584503 209 38ft 0kts
05-Mar-18 11:20 45.587872 -122.584503 209 38ft 0kts
05-Mar-18 11:21 45.587872 -122.584503 209 38ft 0kts
05-Mar-18 11:22 45.587872 -122.584503 209 38ft 0kts
05-Mar-18 11:23 45.587872 -122.584503 209 38ft 0kts
05-Mar-18 11:24 45.587872 -122.584503 209 38ft 0kts
05-Mar-18 11:25 45.587872 -122.584503 209 38ft 0kts
05-Mar-18 11:26 45.587757 -122.583819 28 38ft 3kts
05-Mar-18 11:27 45.588627 -122.585423 298 38ft 0kts
05-Mar-18 11:28 45.588906 -122.586176 296 38ft 11kts
05-Mar-18 11:29 45.591027 -122.589168 300 38ft 15kts
05-Mar-18 11:30 45.593182 -122.594697 298 38ft 17kts
05-Mar-18 11:31 45.594402 -122.597438 19 38ft 0kts
05-Mar-18 11:32 45.594931 -122.596224 92 38ft 15kts
05-Mar-18 11:33 45.591781 -122.587870 118 38ft 115kts
05-Mar-18 11:34 45.569524 -122.529864 117 2130ft 199kts
05-Mar-18 11:35 45.539363 -122.451758 117 4452ft 264kts
05-Mar-18 11:36 45.503482 -122.360360 117 7566ft 285kts
05-Mar-18 11:37 45.466629 -122.265030 118 10354ft 305kts
05-Mar-18 11:38 45.411587 -122.177821 154 12735ft 327kts
05-Mar-18 11:39 45.330903 -122.119102 154 15089ft 345kts
05-Mar-18 11:40 45.245283 -122.052819 154 16838ft 373kts
05-Mar-18 11:41 45.155498 -121.983735 153 18797ft 384kts
05-Mar-18 11:42 45.062377 -121.912376 153 20559ft 394kts
05-Mar-18 11:43 44.967423 -121.839906 154 22211ft 399kts
05-Mar-18 11:44 44.876167 -121.770538 154 23452ft 407kts
05-Mar-18 11:45 44.780127 -121.697802 154 24571ft 415kts
05-Mar-18 11:46 44.679617 -121.621972 154 25606ft 422kts
05-Mar-18 11:47 44.577205 -121.545023 153 26537ft 428kts
05-Mar-18 11:48 44.472325 -121.466539 154 27373ft 434kts
05-Mar-18 11:49 44.366249 -121.387491 153 28117ft 440kts
05-Mar-18 11:50 44.260518 -121.309799 159 28771ft 443kts
05-Mar-18 11:51 44.146373 -121.253946 164 29548ft 440kts
05-Mar-18 11:52 44.031028 -121.200292 164 30274ft 440kts
05-Mar-18 11:53 43.915786 -121.147043 164 30906ft 441kts
05-Mar-18 11:54 43.803768 -121.095503 164 31365ft 445kts
05-Mar-18 11:55 43.685447 -121.041291 164 31367ft 459kts
05-Mar-18 11:56 43.564550 -120.986099 164 31368ft 464kts
05-Mar-18 11:57 43.442212 -120.930509 164 31367ft 468kts
05-Mar-18 11:58 43.340064 -120.884267 164 31366ft 469kts
05-Mar-18 11:59 43.197429 -120.819976 164 31367ft 469kts
05-Mar-18 12:00 43.095723 -120.774330 164 31370ft 469kts
05-Mar-18 12:01 42.973450 -120.719587 165 31369ft 470kts
05-Mar-18 12:02 42.834546 -120.657711 167 31367ft 472kts
05-Mar-18 12:03 42.731666 -120.611990 167 31368ft 474kts
05-Mar-18 12:04 42.607203 -120.556784 167 31370ft 475kts
05-Mar-18 12:05 42.482013 -120.502688 172 31369ft 472kts
05-Mar-18 12:06 42.355361 -120.465012 173 31372ft 473kts
05-Mar-18 12:07 42.228030 -120.426990 173 31374ft 474kts
05-Mar-18 12:08 42.100262 -120.388954 173 31375ft 475kts
05-Mar-18 12:09 41.972793 -120.351170 173 31376ft 476kts
05-Mar-18 12:10 41.853917 -120.316076 174 31360ft 476kts
05-Mar-18 12:11 41.727707 -120.278957 174 31362ft 474kts
05-Mar-18 12:12 41.599828 -120.241505 174 31362ft 474kts
05-Mar-18 12:13 41.472150 -120.204256 174 31363ft 473kts
05-Mar-18 12:14 41.344583 -120.167190 174 31365ft 473kts
05-Mar-18 12:15 41.216912 -120.130238 174 31353ft 469kts
05-Mar-18 12:16 41.092816 -120.094612 174 29206ft 455kts
05-Mar-18 12:17 40.971363 -120.059979 174 26854ft 447kts
05-Mar-18 12:18 40.858904 -120.028077 173 24938ft 434kts
05-Mar-18 12:19 40.745836 -119.995953 172 22963ft 421kts
05-Mar-18 12:20 40.634374 -119.964346 171 21399ft 410kts
05-Mar-18 12:21 40.524137 -119.933154 171 21393ft 411kts
05-Mar-18 12:22 40.414113 -119.902164 171 20755ft 400kts
05-Mar-18 12:23 40.307973 -119.872419 170 18697ft 386kts
05-Mar-18 12:24 40.207451 -119.844291 169 16805ft 370kts
05-Mar-18 12:25 40.109927 -119.817087 168 14961ft 355kts
05-Mar-18 12:26 40.016711 -119.791154 168 13177ft 339kts
05-Mar-18 12:27 39.931292 -119.767429 168 13004ft 303kts
05-Mar-18 12:28 39.856255 -119.751619 182 12203ft 292kts
05-Mar-18 12:29 39.779219 -119.756813 183 10246ft 281kts
05-Mar-18 12:30 39.706583 -119.761468 183 8548ft 244kts
05-Mar-18 12:31 39.640331 -119.766314 182 7110ft 248kts
05-Mar-18 12:32 39.578521 -119.766774 178 6112ft 206kts
05-Mar-18 12:33 39.530485 -119.766703 180 4803ft 146kts
05-Mar-18 12:34 39.499774 -119.766764 178 4424ft 52kts
05-Mar-18 12:35 39.497757 -119.765345 318 4424ft 6kts
05-Mar-18 12:36 39.500465 -119.765789 358 4424ft 14kts
05-Mar-18 12:37 39.501615 -119.764608 172 4424ft 6kts

Navigation Log

Ident Type
Flight plan parsing failed, navigation log unavailable